Aérodrome :
LOGIN :

S'inscrire | Disclaimer

   EN    FR    IT 

 










Légende :    VFR   VFR Marginal   IFR   IFR Intensif   IFR Très Intensif
Visi : 
Plafond : 
>= 8 km
>= 3000ft
5 à 8 km
1000 à 3000 ft
1500m à 5 km
500 à 1000 ft
800 à 1500m
200 à 500 ft
< 800m
< 200 ft
Symboles :   Orages  Brouillard  Fortes neiges  Fortes précipitations  Vent > 20 kt
SIGMETs :   Divers  Orages  Givrage  Turbulence  Onde Orograph.  Cendres Volcan.







- Altitude de l'aérodrome : 26 ft
- Code IATA : SYY
- Voir les cartes d'approche


EGPO - Stornoway

DERNIER METAR :
  • 181520Z 25029G41KT 9999 VCSH FEW020CB SCT030 13/08 Q1004

METARs EXPIRÉS :
  • 181450Z 25025G36KT 9999 VCSH FEW015 FEW020CB BKN031 13/07 Q1004
  • 181420Z 25028KT 9999 VCSH FEW020CB SCT033 13/06 Q1004
  • 181350Z 25027G37KT 9999 VCSH FEW020CB BKN033 13/06 Q1004
  • 181320Z 24026KT 9999 VCSH FEW020CB SCT030 BKN037 13/07 Q1004
  • 181250Z 24023G33KT 9999 VCSH FEW018 FEW020CB BKN030 12/07 Q1004

TAF TAF EGPO
Valide du 18 à 15h jusqu'au 19 à 00h UTC


181355Z 1815/1824 23022KT 9999 SCT025
TEMPO 1815/1824 24025G35KT 7000 SHRA
ATIS : +44 1851 707 444
Pas de NOTAMs connus pour ce terrain.
3 SIGMETs publiés pour la FIR Scottish (EGPX) :
 
Onde orographique forte
EGPX SIGMET 05 VALID 181410/181800 EGRR
EGPX SCOTTISH FIR SEV MTW FCST WI N5500 W00100 - N5500 W00454 - N5515 W00511 - N5516 W00516 - N5603 W00540 - N5707 W00542 - N5824 W00452 - N6042 W00047 - N6026 W00038 - N5500 E00105 - N5500 W00100 FL040/240 STNR NC=
Annulation du SIGMET 03
EGPX SIGMET 04 VALID 181410/181800 EGRR
EGPX SCOTTISH FIR CNL SIGMET 03 181400/181800=
SIGMET 03  ANNULÉ :
Onde orographique forte
EGPX SIGMET 03 VALID 181400/181800 EGRR
EGPX SCOTTISH FIR SEV MTW FCST WI N5500 W00437 - N5607 W00544 - N5711 W00546 - N6059 W00209 - N5500 W00437 WI N6100 W00027 - N6059 W00029 - N5500 E00014 - N6100 W00027 FL040/240 STNR NC=



MET'MAP, la Météo Aéronautique d'un coup d'oeil ! - Copyright ORBIFLY Décembre 2007 - Disclaimer

ORBIFLY MET'MAP TEAM :

Programmation & Développement : Alexandra Zaïnal
Conception & Développement : Baudouin d'Aumeries
Co-Programmation & Développement : Marc-Olivier Méhu
Soutien technique & logistique : Manuel Goepfert

Contact : metmap@orbifly.com




SOURCES & CREDITS :

   NOAA